createdAt,value
2018-04-21T00:02:01.992Z,67.10
2018-04-21T00:04:30.522Z,67.44
2018-04-21T00:06:58.987Z,67.27
2018-04-21T00:09:27.337Z,67.37
2018-04-21T00:11:55.897Z,66.91
2018-04-21T00:14:24.310Z,66.32
2018-04-21T00:16:52.858Z,67.14
2018-04-21T00:19:21.217Z,67.58
2018-04-21T00:21:49.798Z,67.81
2018-04-21T00:24:18.225Z,67.61
2018-04-21T00:26:46.760Z,67.98
2018-04-21T00:29:14.950Z,67.97
2018-04-21T00:31:43.113Z,68.28
2018-04-21T00:34:11.341Z,68.21
2018-04-21T00:36:39.502Z,68.70
2018-04-21T00:39:07.993Z,69.16
2018-04-21T00:41:36.154Z,68.68
2018-04-21T00:44:04.593Z,69.44
2018-04-21T00:46:33.094Z,70.03
2018-04-21T00:49:01.630Z,70.47
2018-04-21T00:51:29.782Z,70.58
2018-04-21T00:54:09.662Z,70.73
2018-04-21T00:56:38.116Z,70.80
2018-04-21T00:59:06.282Z,70.38
2018-04-21T01:01:34.833Z,70.46
2018-04-21T01:04:02.981Z,70.40
2018-04-21T01:06:31.302Z,69.77
2018-04-21T01:08:59.575Z,69.68
2018-04-21T01:11:28.102Z,69.61
2018-04-21T01:13:56.250Z,69.54
2018-04-21T01:16:24.412Z,69.02
2018-04-21T01:18:52.833Z,69.68
2018-04-21T01:21:20.996Z,69.75
2018-04-21T01:23:49.385Z,69.48
2018-04-21T01:26:17.602Z,70.07
2018-04-21T01:28:45.784Z,69.94
2018-04-21T01:31:13.935Z,70.69
2018-04-21T01:33:42.388Z,70.54
2018-04-21T01:36:10.830Z,71.06
2018-04-21T01:38:39.300Z,71.31
2018-04-21T01:41:07.682Z,71.67
2018-04-21T01:43:35.831Z,72.05
2018-04-21T01:46:04.010Z,72.19
2018-04-21T01:48:32.698Z,72.22
2018-04-21T01:51:00.922Z,71.94
2018-04-21T01:53:29.069Z,72.89
2018-04-21T01:55:57.254Z,72.81
2018-04-21T01:58:25.705Z,72.22
2018-04-21T02:00:54.015Z,72.18
2018-04-21T02:03:22.497Z,72.35
2018-04-21T02:05:50.669Z,72.24
2018-04-21T02:08:19.030Z,73.37
2018-04-21T02:10:47.200Z,73.43
2018-04-21T02:13:15.356Z,73.39
2018-04-21T02:15:43.511Z,73.68
2018-04-21T02:18:11.814Z,73.68
2018-04-21T02:20:39.981Z,73.91
2018-04-21T02:23:08.150Z,73.55
2018-04-21T02:25:36.475Z,73.23
2018-04-21T02:28:04.943Z,73.35
2018-04-21T02:30:33.133Z,73.41
2018-04-21T02:33:01.350Z,73.23
2018-04-21T02:35:29.529Z,73.25
2018-04-21T02:37:58.031Z,73.54
2018-04-21T02:40:26.234Z,73.49
2018-04-21T02:42:54.620Z,73.81
2018-04-21T02:45:22.860Z,73.78
2018-04-21T02:47:51.015Z,73.73
2018-04-21T02:50:19.414Z,73.68
2018-04-21T02:52:47.783Z,73.76
2018-04-21T02:55:16.244Z,73.88
2018-04-21T02:57:44.395Z,73.71
2018-04-21T03:00:12.783Z,74.37
2018-04-21T03:02:40.959Z,74.63
2018-04-21T03:05:09.163Z,74.82
2018-04-21T03:07:37.712Z,74.80
2018-04-21T03:10:05.884Z,74.60
2018-04-21T03:12:34.202Z,74.90
2018-04-21T03:15:02.480Z,74.69
2018-04-21T03:17:30.876Z,74.65
2018-04-21T03:19:59.033Z,74.44
2018-04-21T03:22:27.327Z,74.74
2018-04-21T03:24:55.503Z,74.85
2018-04-21T03:27:23.894Z,74.95
2018-04-21T03:29:52.111Z,75.08
2018-04-21T03:32:20.281Z,75.26
2018-04-21T03:34:48.761Z,76.01
2018-04-21T03:37:16.915Z,75.57
2018-04-21T03:39:45.125Z,75.64
2018-04-21T03:42:13.542Z,74.84
2018-04-21T03:44:41.715Z,75.79
2018-04-21T03:47:10.141Z,75.68
2018-04-21T03:49:38.284Z,76.06
2018-04-21T03:52:06.484Z,75.45
2018-04-21T03:54:34.661Z,75.00
2018-04-21T03:57:02.903Z,74.98
2018-04-21T03:59:31.394Z,75.65
2018-04-21T04:01:59.577Z,75.73
2018-04-21T04:04:28.081Z,75.52
2018-04-21T04:06:56.655Z,76.05
2018-04-21T04:09:25.184Z,76.61
2018-04-21T04:11:54.499Z,77.05
2018-04-21T04:14:34.694Z,77.63
2018-04-21T04:17:15.102Z,77.27
2018-04-21T04:22:55.914Z,77.75
2018-04-21T04:25:25.375Z,77.62
2018-04-21T04:27:55.159Z,78.27
2018-04-21T04:30:22.748Z,78.01
2018-04-21T04:32:51.514Z,78.49
2018-04-21T04:35:20.480Z,78.48
2018-04-21T04:37:49.732Z,78.35
2018-04-21T04:40:18.429Z,78.19
2018-04-21T04:42:48.521Z,78.17
2018-04-21T04:45:18.577Z,78.64
2018-04-21T04:47:47.042Z,79.18
2018-04-21T04:50:15.244Z,79.10
2018-04-21T04:52:45.402Z,79.02
2018-04-21T04:55:19.674Z,78.87
2018-04-21T04:57:48.938Z,78.91
2018-04-21T05:00:18.962Z,78.50
2018-04-21T05:02:47.205Z,77.76
2018-04-21T05:05:15.410Z,77.97
2018-04-21T05:07:49.975Z,78.13
2018-04-21T05:10:21.640Z,78.20
2018-04-21T05:12:54.796Z,77.91
2018-04-21T05:15:23.518Z,78.10
2018-04-21T05:17:56.890Z,78.37
2018-04-21T05:20:27.829Z,78.69
2018-04-21T05:22:58.409Z,78.56
2018-04-21T05:25:27.986Z,78.51
2018-04-21T05:30:36.209Z,77.77
2018-04-21T05:33:05.105Z,77.79
2018-04-21T05:35:35.323Z,77.56
2018-04-21T05:38:05.565Z,77.62
2018-04-21T05:40:36.783Z,77.55
2018-04-21T05:43:05.594Z,77.86
2018-04-21T05:45:37.025Z,77.99
2018-04-21T05:48:08.130Z,78.23
2018-04-21T05:50:36.703Z,78.61
2018-04-21T05:53:05.369Z,78.50
2018-04-21T05:55:35.056Z,78.31
2018-04-21T05:58:05.000Z,78.25
2018-04-21T06:00:37.751Z,77.90
2018-04-21T06:03:06.465Z,77.62
2018-04-21T06:05:35.325Z,77.45
2018-04-21T06:08:05.739Z,76.94
2018-04-21T06:10:38.174Z,76.78
2018-04-21T06:13:10.034Z,76.93
2018-04-21T06:15:41.437Z,76.68
2018-04-21T06:18:10.282Z,76.71
2018-04-21T06:20:39.094Z,76.88
2018-04-21T06:23:08.019Z,76.43
2018-04-21T06:25:38.468Z,76.75
2018-04-21T06:28:08.111Z,76.45
2018-04-21T06:44:04.714Z,75.29
2018-04-21T06:46:33.400Z,75.02
2018-04-21T06:49:02.417Z,74.77
2018-04-21T06:51:32.312Z,74.41
2018-04-21T06:54:02.017Z,74.24
2018-04-21T06:56:34.878Z,74.68
2018-04-21T06:59:07.099Z,74.01
2018-04-21T07:01:35.722Z,73.04
2018-04-21T07:04:04.393Z,72.22
2018-04-21T07:06:33.643Z,72.67
2018-04-21T07:09:02.937Z,72.45
2018-04-21T07:11:32.856Z,71.80
2018-04-21T07:14:04.539Z,71.84
2018-04-21T07:16:33.415Z,72.18
2018-04-21T07:19:02.173Z,71.56
2018-04-21T07:21:31.002Z,71.18
2018-04-21T07:23:59.893Z,70.70
2018-04-21T07:26:28.593Z,70.17
2018-04-21T07:28:57.357Z,70.03
2018-04-21T07:31:25.843Z,69.44
2018-04-21T07:33:54.731Z,69.56
2018-04-21T07:36:23.686Z,69.08
2018-04-21T07:38:53.359Z,68.72
2018-04-21T07:41:25.620Z,68.08
2018-04-21T07:43:55.043Z,67.86
2018-04-21T07:46:26.819Z,67.51
2018-04-21T07:48:55.800Z,66.19
2018-04-21T07:51:26.774Z,66.88
2018-04-21T07:53:55.736Z,65.58
2018-04-21T07:56:24.664Z,65.93
2018-04-21T07:58:56.258Z,64.85
2018-04-21T08:01:28.776Z,65.22
2018-04-21T08:03:59.010Z,65.18
2018-04-21T08:06:33.364Z,65.78
2018-04-21T08:09:06.736Z,64.27
2018-04-21T08:11:41.088Z,65.86
2018-04-21T08:14:10.929Z,64.89
2018-04-21T08:16:40.353Z,65.02
2018-04-21T08:19:09.053Z,62.49
2018-04-21T08:21:37.951Z,62.68
2018-04-21T08:24:06.948Z,61.10
2018-04-21T08:26:39.218Z,63.01
2018-04-21T08:29:07.899Z,60.98
2018-04-21T08:31:36.685Z,60.84
2018-04-21T08:34:05.484Z,60.36
2018-04-21T08:36:34.372Z,59.77
2018-04-21T08:39:05.481Z,60.06
2018-04-21T08:41:34.365Z,60.50
2018-04-21T08:53:49.900Z,59.04
2018-04-21T08:56:18.605Z,59.25
2018-04-21T08:58:48.190Z,60.14
2018-04-21T09:01:19.835Z,57.79
2018-04-21T09:03:48.541Z,59.26
2018-04-21T09:06:18.997Z,57.27
2018-04-21T09:08:50.530Z,56.16
2018-04-21T09:11:20.102Z,58.34
2018-04-21T09:13:48.833Z,56.17
2018-04-21T09:16:17.740Z,56.20
2018-04-21T09:18:46.642Z,55.29
2018-04-21T09:21:15.652Z,56.22
2018-04-21T09:23:44.924Z,54.53
2018-04-21T09:26:15.428Z,54.85
2018-04-21T09:28:45.307Z,56.66
2018-04-21T09:31:13.849Z,54.73
2018-04-21T09:33:42.872Z,55.87
2018-04-21T09:36:12.705Z,54.42
2018-04-21T09:38:41.471Z,54.33
2018-04-21T09:41:09.971Z,53.85
2018-04-21T09:43:38.841Z,53.26
2018-04-21T09:46:07.734Z,53.59
2018-04-21T09:48:36.430Z,52.35
2018-04-21T09:51:05.530Z,52.97
2018-04-21T09:53:36.690Z,52.30
2018-04-21T09:56:08.330Z,52.26
2018-04-21T09:58:37.022Z,51.87
2018-04-21T10:01:08.877Z,51.33
2018-04-21T10:03:38.767Z,50.37
2018-04-21T10:06:07.492Z,51.21
2018-04-21T10:08:38.674Z,50.87
2018-04-21T10:11:07.433Z,49.60
2018-04-21T10:13:39.000Z,51.03
2018-04-21T10:16:10.653Z,50.14
2018-04-21T10:18:39.962Z,49.73
2018-04-21T10:21:09.305Z,50.63
2018-04-21T10:23:42.110Z,49.63
2018-04-21T10:26:10.940Z,49.63
2018-04-21T10:28:40.589Z,49.78
2018-04-21T10:31:11.788Z,49.34
2018-04-21T10:33:40.575Z,48.55
2018-04-21T10:36:10.339Z,49.52
2018-04-21T10:38:41.954Z,48.32
2018-04-21T10:41:10.631Z,48.13
2018-04-21T10:43:40.223Z,46.98
2018-04-21T10:46:09.290Z,48.40
2018-04-21T10:48:39.880Z,48.27
2018-04-21T10:51:11.293Z,48.07
2018-04-21T10:53:43.225Z,48.41
2018-04-21T10:56:12.994Z,48.06
2018-04-21T10:58:41.697Z,49.06
2018-04-21T11:01:10.783Z,48.29
2018-04-21T11:03:41.385Z,49.34
2018-04-21T11:06:10.654Z,47.73
2018-04-21T11:08:39.441Z,48.38
2018-04-21T11:11:10.791Z,47.08
2018-04-21T11:13:41.019Z,48.61
2018-04-21T11:16:12.572Z,46.90
2018-04-21T11:18:41.338Z,47.49
2018-04-21T11:21:14.873Z,47.65
2018-04-21T11:23:43.743Z,47.34
2018-04-21T11:26:12.672Z,45.85
2018-04-21T11:28:41.347Z,45.63
2018-04-21T11:31:14.613Z,46.46
2018-04-21T11:33:47.855Z,46.95
2018-04-21T11:36:16.864Z,43.04
2018-04-21T11:38:46.883Z,39.77
2018-04-21T11:41:16.595Z,41.33
2018-04-21T11:43:46.595Z,42.55
2018-04-21T11:46:15.478Z,39.63
2018-04-21T11:48:44.374Z,40.42
2018-04-21T11:51:13.065Z,43.39
2018-04-21T11:53:42.571Z,40.47
2018-04-21T11:56:12.991Z,40.32
2018-04-21T11:58:42.920Z,40.58
2018-04-21T12:01:11.618Z,40.69
2018-04-21T12:03:41.501Z,41.02
2018-04-21T12:06:10.247Z,38.43
2018-04-21T12:08:41.009Z,41.32
2018-04-21T12:11:09.753Z,38.82
2018-04-21T12:13:41.423Z,37.82
2018-04-21T12:16:14.974Z,38.52
2018-04-21T12:18:45.938Z,39.70
2018-04-21T12:21:16.257Z,37.78
2018-04-21T12:23:47.338Z,38.47
2018-04-21T12:26:19.291Z,40.35
2018-04-21T12:28:48.395Z,39.03
2018-04-21T12:31:22.909Z,39.81
2018-04-21T12:33:55.197Z,39.36
2018-04-21T12:36:26.232Z,41.40
2018-04-21T12:38:56.024Z,36.94
2018-04-21T12:41:24.636Z,38.63
2018-04-21T12:43:53.621Z,35.94
2018-04-21T12:46:25.673Z,37.30
2018-04-21T12:48:54.573Z,38.00
2018-04-21T12:51:24.088Z,36.10
2018-04-21T12:53:52.910Z,37.99
2018-04-21T12:56:24.403Z,38.59
2018-04-21T12:58:59.161Z,40.54
2018-04-21T13:01:28.120Z,40.06
2018-04-21T13:03:57.384Z,35.68
2018-04-21T13:06:28.830Z,37.03
2018-04-21T13:09:02.180Z,35.84
2018-04-21T13:11:31.019Z,36.19
2018-04-21T13:13:59.914Z,36.09
2018-04-21T13:16:28.805Z,36.94
2018-04-21T13:18:57.499Z,34.85
2018-04-21T13:21:28.017Z,34.79
2018-04-21T13:23:57.401Z,35.57
2018-04-21T13:26:26.110Z,33.74
2018-04-21T13:28:54.816Z,34.29
2018-04-21T13:31:25.107Z,35.85
2018-04-21T13:33:54.912Z,36.01
2018-04-21T13:36:23.517Z,35.94
2018-04-21T13:38:53.105Z,33.89
2018-04-21T13:41:21.700Z,35.14
2018-04-21T13:43:50.616Z,35.25
2018-04-21T13:46:23.992Z,35.58
2018-04-21T13:48:52.845Z,34.52
2018-04-21T13:51:22.682Z,35.00
2018-04-21T13:53:51.444Z,31.54
2018-04-21T13:56:21.357Z,32.28
2018-04-21T13:58:50.955Z,30.42
2018-04-21T14:01:19.776Z,32.92
2018-04-21T14:03:48.558Z,30.40
2018-04-21T14:06:20.019Z,33.13
2018-04-21T14:08:48.799Z,31.08
2018-04-21T14:11:20.587Z,35.12
2018-04-21T14:13:49.449Z,32.42
2018-04-21T14:16:21.441Z,33.46
2018-04-21T14:18:52.068Z,33.54
2018-04-21T14:21:21.042Z,35.34
2018-04-21T14:23:50.769Z,32.84
2018-04-21T14:26:21.700Z,33.43
2018-04-21T14:28:50.623Z,28.77
2018-04-21T14:31:24.633Z,28.28
2018-04-21T14:33:54.343Z,30.24
2018-04-21T14:36:23.097Z,29.88
2018-04-21T14:38:51.331Z,29.43
2018-04-21T14:41:20.005Z,28.30
2018-04-21T14:43:51.362Z,27.91
2018-04-21T14:46:20.054Z,28.61
2018-04-21T14:48:48.741Z,28.55
2018-04-21T14:51:17.439Z,27.84
2018-04-21T14:53:45.676Z,27.60
2018-04-21T14:56:15.529Z,28.51
2018-04-21T14:58:45.563Z,27.11
2018-04-21T15:01:15.712Z,29.31
2018-04-21T15:03:44.393Z,25.23
2018-04-21T15:06:14.221Z,25.57
2018-04-21T15:08:45.760Z,26.45
2018-04-21T15:11:15.482Z,25.36
2018-04-21T15:13:44.141Z,26.62
2018-04-21T15:16:13.885Z,27.39
2018-04-21T15:18:45.311Z,29.54
2018-04-21T15:21:14.306Z,24.32
2018-04-21T15:23:43.231Z,29.69
2018-04-21T15:26:13.356Z,28.00
2018-04-21T15:28:41.952Z,28.93
2018-04-21T15:31:13.390Z,29.25
2018-04-21T15:33:42.374Z,29.96
2018-04-21T15:36:12.566Z,26.50
2018-04-21T15:38:43.902Z,30.16
2018-04-21T15:41:15.342Z,29.49
2018-04-21T15:43:45.109Z,28.99
2018-04-21T15:46:14.798Z,29.06
2018-04-21T15:48:44.306Z,29.28
2018-04-21T15:51:13.161Z,28.41
2018-04-21T15:53:43.903Z,28.86
2018-04-21T15:56:13.401Z,28.47
2018-04-21T15:58:45.157Z,29.19
2018-04-21T16:01:15.991Z,29.87
2018-04-21T16:03:49.603Z,28.29
2018-04-21T16:06:19.615Z,30.45
2018-04-21T16:08:52.625Z,29.38
2018-04-21T16:11:22.848Z,30.90
2018-04-21T16:13:53.524Z,33.20
2018-04-21T16:16:22.862Z,33.98
2018-04-21T16:18:51.715Z,33.85
2018-04-21T16:21:24.415Z,33.69
2018-04-21T16:23:56.140Z,33.08
2018-04-21T16:26:25.885Z,32.93
2018-04-21T16:28:55.311Z,32.54
2018-04-21T16:31:24.007Z,32.52
2018-04-21T16:33:55.484Z,33.02
2018-04-21T16:36:24.177Z,33.12
2018-04-21T16:38:52.872Z,32.90
2018-04-21T16:41:22.242Z,32.82
2018-04-21T16:43:52.476Z,33.67
2018-04-21T16:46:21.597Z,33.57
2018-04-21T16:48:51.293Z,34.50
2018-04-21T16:51:19.907Z,34.01
2018-04-21T16:53:53.641Z,34.69
2018-04-21T16:56:22.505Z,35.70
2018-04-21T16:58:51.256Z,35.55
2018-04-21T17:01:19.888Z,35.84
2018-04-21T17:03:49.543Z,36.09
2018-04-21T17:06:18.288Z,35.94
2018-04-21T17:08:48.751Z,36.65
2018-04-21T17:11:17.476Z,36.80
2018-04-21T17:13:51.191Z,36.42
2018-04-21T17:16:20.051Z,36.60
2018-04-21T17:18:49.326Z,36.69
2018-04-21T17:21:21.253Z,39.16
2018-04-21T17:23:50.175Z,38.60
2018-04-21T17:26:27.461Z,38.06
2018-04-21T17:28:57.260Z,38.20
2018-04-21T17:31:26.065Z,37.81
2018-04-21T17:33:54.851Z,38.05
2018-04-21T17:36:24.065Z,38.11
2018-04-21T17:38:56.976Z,37.59
2018-04-21T17:41:25.870Z,38.70
2018-04-21T17:43:54.722Z,39.48
2018-04-21T17:46:23.739Z,39.27
2018-04-21T17:48:52.605Z,39.31
2018-04-21T17:51:22.842Z,39.55
2018-04-21T17:53:51.634Z,40.14
2018-04-21T17:56:23.319Z,40.62
2018-04-21T17:58:54.652Z,41.24
2018-04-21T18:01:25.573Z,41.53
2018-04-21T18:03:54.269Z,42.07
2018-04-21T18:06:26.143Z,42.25
2018-04-21T18:08:55.053Z,42.69
2018-04-21T18:11:26.301Z,42.91
2018-04-21T18:13:55.151Z,43.05
2018-04-21T18:16:24.824Z,44.66
2018-04-21T18:18:53.698Z,44.79
2018-04-21T18:21:26.065Z,44.53
2018-04-21T18:23:54.759Z,45.17
2018-04-21T18:26:23.549Z,45.58
2018-04-21T18:28:52.770Z,46.09
2018-04-21T18:31:21.747Z,46.44
2018-04-21T18:33:50.482Z,46.88
2018-04-21T18:36:19.237Z,47.00
2018-04-21T18:38:47.933Z,48.11
2018-04-21T18:41:19.944Z,47.70
2018-04-21T18:43:49.590Z,49.59
2018-04-21T18:46:18.350Z,49.55
2018-04-21T18:48:48.928Z,50.18
2018-04-21T18:51:19.344Z,50.68
2018-04-21T18:53:48.245Z,50.75
2018-04-21T18:56:16.939Z,51.55
2018-04-21T18:58:46.562Z,51.63
2018-04-21T19:01:17.877Z,51.86
2018-04-21T19:03:46.789Z,52.22
2018-04-21T19:06:18.036Z,52.86
2018-04-21T19:08:46.823Z,53.11
2018-04-21T19:11:16.647Z,53.33
2018-04-21T19:13:46.471Z,53.34
2018-04-21T19:16:15.349Z,53.94
2018-04-21T19:18:44.241Z,54.53
2018-04-21T19:21:13.127Z,54.92
2018-04-21T19:23:42.522Z,55.48
2018-04-21T19:26:11.233Z,55.30
2018-04-21T19:28:42.005Z,56.03
2018-04-21T19:31:11.390Z,55.52
2018-04-21T19:33:40.071Z,55.85
2018-04-21T19:36:11.032Z,55.92
2018-04-21T19:38:41.632Z,56.03
2018-04-21T19:41:13.064Z,56.47
2018-04-21T19:43:42.479Z,56.54
2018-04-21T19:46:10.800Z,57.17
2018-04-21T19:48:40.999Z,56.91
2018-04-21T19:51:10.214Z,58.20
2018-04-21T19:53:39.178Z,58.28
2018-04-21T19:56:07.548Z,57.90
2018-04-21T19:58:43.646Z,57.81
2018-04-21T20:01:13.259Z,57.99
2018-04-21T20:03:42.102Z,58.16
2018-04-21T20:06:13.512Z,58.24
2018-04-21T20:08:42.885Z,58.09
2018-04-21T20:11:11.698Z,58.66
2018-04-21T20:13:42.946Z,59.12
2018-04-21T20:16:13.476Z,59.60
2018-04-21T20:18:43.090Z,60.08
2018-04-21T20:21:15.162Z,60.46
2018-04-21T20:23:44.053Z,60.40
2018-04-21T20:26:13.859Z,60.46
2018-04-21T20:28:42.666Z,60.96
2018-04-21T20:31:11.440Z,61.16
2018-04-21T20:33:42.785Z,61.42
2018-04-21T20:36:12.602Z,61.45
2018-04-21T20:38:41.434Z,61.48
2018-04-21T20:41:12.044Z,61.39
2018-04-21T20:43:40.635Z,61.68
2018-04-21T20:46:09.348Z,61.71
2018-04-21T20:48:39.670Z,62.44
2018-04-21T20:51:10.771Z,61.79
2018-04-21T20:53:39.498Z,61.68
2018-04-21T20:56:08.140Z,62.12
2018-04-21T20:58:38.197Z,62.10
2018-04-21T21:01:07.824Z,62.43
2018-04-21T21:03:36.450Z,62.59
2018-04-21T21:06:07.342Z,62.68
2018-04-21T21:08:37.645Z,62.83
2018-04-21T21:11:09.620Z,62.20
2018-04-21T21:13:44.655Z,62.05
2018-04-21T21:16:14.267Z,62.33
2018-04-21T21:18:44.164Z,62.25
2018-04-21T21:21:13.697Z,62.20
2018-04-21T21:23:44.639Z,62.54
2018-04-21T21:26:13.423Z,62.69
2018-04-21T21:28:44.454Z,62.36
2018-04-21T21:31:15.611Z,62.58
2018-04-21T21:33:44.424Z,62.57
2018-04-21T21:36:16.594Z,62.32
2018-04-21T21:38:45.271Z,62.03
2018-04-21T21:41:17.788Z,62.76
2018-04-21T21:43:46.618Z,62.57
2018-04-21T21:46:16.409Z,63.12
2018-04-21T21:48:45.691Z,63.67
2018-04-21T21:51:14.867Z,63.71
2018-04-21T21:53:45.758Z,63.99
2018-04-21T21:56:14.569Z,64.01
2018-04-21T21:58:43.186Z,64.61
2018-04-21T22:01:13.839Z,64.31
2018-04-21T22:03:43.344Z,64.49
2018-04-21T22:06:12.133Z,64.75
2018-04-21T22:08:40.823Z,65.39
2018-04-21T22:11:10.283Z,65.60
2018-04-21T22:13:39.108Z,65.84
2018-04-21T22:16:08.007Z,66.05
2018-04-21T22:18:37.712Z,66.47
2018-04-21T22:21:09.086Z,66.51
2018-04-21T22:23:38.768Z,66.48
2018-04-21T22:26:07.668Z,67.28
2018-04-21T22:28:39.409Z,67.54
2018-04-21T22:31:08.450Z,67.22
2018-04-21T22:33:38.045Z,67.72
2018-04-21T22:36:09.471Z,67.53
2018-04-21T22:38:39.434Z,67.45
2018-04-21T22:41:09.104Z,68.74
2018-04-21T22:43:37.308Z,68.59
2018-04-21T22:46:08.716Z,68.94
2018-04-21T22:48:41.111Z,68.83
2018-04-21T22:51:17.675Z,69.38
2018-04-21T22:53:48.711Z,68.88
2018-04-21T22:56:19.096Z,69.35
2018-04-21T22:58:48.673Z,69.46
2018-04-21T23:01:17.467Z,69.18
2018-04-21T23:03:47.178Z,69.86
2018-04-21T23:06:18.021Z,69.89
2018-04-21T23:08:48.471Z,70.29
2018-04-21T23:11:19.905Z,70.36
2018-04-21T23:13:48.533Z,70.09
2018-04-21T23:16:18.014Z,71.29
2018-04-21T23:18:48.246Z,71.75
2018-04-21T23:21:17.021Z,72.13
2018-04-21T23:23:45.584Z,72.26
2018-04-21T23:26:14.399Z,72.00
2018-04-21T23:28:43.191Z,71.68
2018-04-21T23:31:14.268Z,71.81
2018-04-21T23:33:42.931Z,71.87
2018-04-21T23:36:12.654Z,72.16
2018-04-21T23:38:44.180Z,72.32
2018-04-21T23:41:14.923Z,72.67
2018-04-21T23:43:43.710Z,72.62
2018-04-21T23:46:14.441Z,72.90
2018-04-21T23:48:43.138Z,73.04
2018-04-21T23:51:12.823Z,73.50
2018-04-21T23:53:41.543Z,73.30
2018-04-21T23:56:11.035Z,73.30
2018-04-21T23:58:44.032Z,73.13
